createdAt,value
2022-07-26T00:00:33.056Z,63.97
2022-07-26T00:01:33.150Z,61.87
2022-07-26T00:02:33.123Z,61.23
2022-07-26T00:03:33.036Z,60.75
2022-07-26T00:04:33.036Z,60.42
2022-07-26T00:05:33.017Z,59.94
2022-07-26T00:06:33.020Z,65.26
2022-07-26T00:07:36.402Z,61.07
2022-07-26T00:08:33.005Z,60.42
2022-07-26T00:09:33.018Z,60.42
2022-07-26T00:10:32.996Z,59.62
2022-07-26T00:11:33.005Z,61.71
2022-07-26T00:12:33.003Z,60.42
2022-07-26T00:13:32.965Z,60.42
2022-07-26T00:14:32.967Z,60.59
2022-07-26T00:15:32.949Z,61.71
2022-07-26T00:16:33.000Z,61.23
2022-07-26T00:17:32.938Z,62.04
2022-07-26T00:18:32.949Z,60.59
2022-07-26T00:19:32.924Z,61.23
2022-07-26T00:20:32.909Z,60.91
2022-07-26T00:21:32.933Z,61.87
2022-07-26T00:22:32.919Z,63.00
2022-07-26T00:23:32.885Z,60.59
2022-07-26T00:24:35.489Z,61.07
2022-07-26T00:25:32.880Z,60.75
2022-07-26T00:26:32.900Z,62.20
2022-07-26T00:27:32.868Z,60.59
2022-07-26T00:28:32.856Z,61.55
2022-07-26T00:29:32.846Z,61.71
2022-07-26T00:30:32.841Z,61.23
2022-07-26T00:31:32.934Z,62.36
2022-07-26T00:32:32.836Z,63.81
2022-07-26T00:33:32.826Z,60.91
2022-07-26T00:34:32.815Z,61.23
2022-07-26T00:35:32.804Z,63.49
2022-07-26T00:36:32.807Z,60.59
2022-07-26T00:37:32.840Z,63.65
2022-07-26T00:38:32.791Z,63.33
2022-07-26T00:39:32.787Z,60.91
2022-07-26T00:40:32.777Z,64.78
2022-07-26T00:41:32.765Z,63.49
2022-07-26T00:42:32.772Z,63.81
2022-07-26T00:43:32.773Z,61.39
2022-07-26T00:44:32.741Z,61.23
2022-07-26T00:45:32.742Z,62.52
2022-07-26T00:46:32.809Z,61.39
2022-07-26T00:47:32.731Z,61.23
2022-07-26T00:48:32.774Z,60.91
2022-07-26T00:49:32.752Z,61.23
2022-07-26T00:50:32.704Z,61.07
2022-07-26T00:51:32.692Z,61.39
2022-07-26T00:52:32.690Z,60.91
2022-07-26T00:53:32.674Z,60.26
2022-07-26T00:54:32.671Z,62.04
2022-07-26T00:55:32.686Z,61.39
2022-07-26T00:56:32.697Z,61.07
2022-07-26T00:57:32.653Z,60.10
2022-07-26T00:58:32.638Z,61.87
2022-07-26T00:59:32.629Z,61.23
2022-07-26T01:00:32.654Z,62.20
2022-07-26T01:01:32.775Z,60.59
2022-07-26T01:02:32.669Z,61.07
2022-07-26T01:03:36.520Z,61.23
2022-07-26T01:04:33.601Z,59.78
2022-07-26T01:05:32.586Z,60.75
2022-07-26T01:06:32.619Z,61.23
2022-07-26T01:07:32.573Z,60.59
2022-07-26T01:08:32.570Z,60.10
2022-07-26T01:09:32.564Z,60.91
2022-07-26T01:10:32.569Z,59.94
2022-07-26T01:11:32.538Z,60.75
2022-07-26T01:12:32.549Z,60.59
2022-07-26T01:13:35.255Z,60.10
2022-07-26T01:14:32.523Z,61.07
2022-07-26T01:15:32.514Z,61.07
2022-07-26T01:16:32.588Z,61.07
2022-07-26T01:17:32.530Z,61.07
2022-07-26T01:18:32.501Z,60.42
2022-07-26T01:19:32.487Z,60.59
2022-07-26T01:20:32.487Z,59.78
2022-07-26T01:21:32.482Z,59.62
2022-07-26T01:22:32.490Z,59.46
2022-07-26T01:23:32.458Z,59.94
2022-07-26T01:24:32.453Z,59.62
2022-07-26T01:25:32.475Z,59.62
2022-07-26T01:26:32.450Z,59.94
2022-07-26T01:27:34.254Z,59.94
2022-07-26T01:28:32.430Z,61.23
2022-07-26T01:29:36.266Z,60.75
2022-07-26T01:30:32.419Z,59.62
2022-07-26T01:31:32.491Z,60.59
2022-07-26T01:32:32.399Z,59.94
2022-07-26T01:33:32.399Z,60.59
2022-07-26T01:34:32.396Z,59.78
2022-07-26T01:35:32.382Z,60.91
2022-07-26T01:36:32.418Z,61.07
2022-07-26T01:37:32.388Z,61.07
2022-07-26T01:38:32.356Z,60.91
2022-07-26T01:39:32.349Z,59.78
2022-07-26T01:40:32.351Z,58.97
2022-07-26T01:41:37.225Z,59.62
2022-07-26T01:42:33.351Z,60.10
2022-07-26T01:43:32.322Z,61.07
2022-07-26T01:44:32.315Z,59.94
2022-07-26T01:45:32.360Z,60.59
2022-07-26T01:46:32.297Z,59.94
2022-07-26T01:47:32.292Z,60.75
2022-07-26T01:48:32.331Z,61.23
2022-07-26T01:49:32.279Z,59.46
2022-07-26T01:50:32.277Z,59.94
2022-07-26T01:51:32.254Z,61.23
2022-07-26T01:52:32.275Z,63.97
2022-07-26T01:53:32.264Z,61.07
2022-07-26T01:54:32.238Z,60.26
2022-07-26T01:55:32.248Z,60.59
2022-07-26T01:56:32.223Z,59.78
2022-07-26T01:57:32.237Z,61.23
2022-07-26T01:58:32.219Z,61.55
2022-07-26T01:59:32.204Z,59.94
2022-07-26T02:00:32.212Z,60.59
2022-07-26T02:01:38.086Z,60.59
2022-07-26T02:02:33.350Z,59.78
2022-07-26T02:03:32.167Z,60.59
2022-07-26T02:04:32.178Z,61.07
2022-07-26T02:05:32.157Z,60.91
2022-07-26T02:06:32.160Z,61.39
2022-07-26T02:07:32.442Z,59.78
2022-07-26T02:08:32.186Z,60.59
2022-07-26T02:09:34.793Z,61.23
2022-07-26T02:10:32.125Z,61.07
2022-07-26T02:11:32.113Z,60.10
2022-07-26T02:12:32.107Z,61.71
2022-07-26T02:13:32.097Z,61.39
2022-07-26T02:14:32.119Z,61.39
2022-07-26T02:15:32.120Z,60.10
2022-07-26T02:16:32.086Z,60.26
2022-07-26T02:17:32.071Z,60.26
2022-07-26T02:18:32.068Z,59.46
2022-07-26T02:19:32.065Z,60.10
2022-07-26T02:20:32.084Z,60.10
2022-07-26T02:21:32.046Z,63.00
2022-07-26T02:22:32.036Z,63.49
2022-07-26T02:23:32.035Z,60.59
2022-07-26T02:24:32.031Z,60.26
2022-07-26T02:25:32.017Z,60.59
2022-07-26T02:26:32.027Z,62.68
2022-07-26T02:27:32.009Z,61.39
2022-07-26T02:28:31.997Z,62.04
2022-07-26T02:29:32.064Z,60.42
2022-07-26T02:30:31.990Z,60.10
2022-07-26T02:31:32.183Z,60.42
2022-07-26T02:32:31.972Z,61.23
2022-07-26T02:33:31.962Z,61.55
2022-07-26T02:34:33.924Z,61.55
2022-07-26T02:35:31.962Z,59.46
2022-07-26T02:36:31.939Z,61.87
2022-07-26T02:37:31.954Z,61.55
2022-07-26T02:38:31.924Z,61.55
2022-07-26T02:39:31.915Z,60.75
2022-07-26T02:40:31.928Z,60.59
2022-07-26T02:41:31.904Z,61.55
2022-07-26T02:42:31.918Z,63.33
2022-07-26T02:43:31.912Z,61.23
2022-07-26T02:44:31.896Z,61.71
2022-07-26T02:45:31.883Z,62.20
2022-07-26T02:46:31.900Z,62.52
2022-07-26T02:47:31.862Z,63.97
2022-07-26T02:48:31.946Z,63.33
2022-07-26T02:49:31.863Z,63.49
2022-07-26T02:50:31.833Z,60.10
2022-07-26T02:51:31.830Z,62.52
2022-07-26T02:52:31.824Z,64.45
2022-07-26T02:53:31.842Z,64.78
2022-07-26T02:54:31.813Z,62.04
2022-07-26T02:55:31.804Z,62.36
2022-07-26T02:56:31.796Z,64.94
2022-07-26T02:57:31.785Z,63.97
2022-07-26T02:58:32.813Z,63.16
2022-07-26T02:59:31.775Z,63.97
2022-07-26T03:00:31.777Z,64.61
2022-07-26T03:01:31.842Z,63.65
2022-07-26T03:02:31.793Z,63.49
2022-07-26T03:03:31.742Z,62.52
2022-07-26T03:04:31.761Z,62.20
2022-07-26T03:05:31.729Z,63.65
2022-07-26T03:06:31.742Z,62.68
2022-07-26T03:07:31.712Z,60.10
2022-07-26T03:08:31.732Z,61.23
2022-07-26T03:09:31.700Z,62.36
2022-07-26T03:10:31.691Z,63.00
2022-07-26T03:11:31.719Z,62.20
2022-07-26T03:12:31.673Z,62.68
2022-07-26T03:13:31.667Z,62.84
2022-07-26T03:14:31.663Z,63.49
2022-07-26T03:15:31.699Z,63.49
2022-07-26T03:16:31.696Z,61.55
2022-07-26T03:17:32.209Z,59.78
2022-07-26T03:18:31.640Z,59.94
2022-07-26T03:19:31.620Z,59.62
2022-07-26T03:20:31.620Z,63.16
2022-07-26T03:21:31.612Z,63.65
2022-07-26T03:22:31.626Z,59.94
2022-07-26T03:23:31.587Z,62.36
2022-07-26T03:24:31.583Z,60.26
2022-07-26T03:25:31.574Z,59.78
2022-07-26T03:26:31.581Z,62.84
2022-07-26T03:27:31.563Z,63.00
2022-07-26T03:28:31.577Z,59.94
2022-07-26T03:29:31.576Z,62.52
2022-07-26T03:30:31.541Z,61.55
2022-07-26T03:31:31.609Z,63.16
2022-07-26T03:32:31.547Z,61.55
2022-07-26T03:33:31.508Z,63.16
2022-07-26T03:34:31.513Z,62.36
2022-07-26T03:35:31.500Z,63.33
2022-07-26T03:36:32.498Z,62.68
2022-07-26T03:37:46.205Z,62.68
2022-07-26T03:38:32.528Z,63.65
2022-07-26T03:39:31.475Z,64.13
2022-07-26T03:40:31.449Z,63.16
2022-07-26T03:41:31.460Z,64.13
2022-07-26T03:42:31.448Z,64.61
2022-07-26T03:43:31.443Z,63.65
2022-07-26T03:44:31.460Z,63.49
2022-07-26T03:45:31.430Z,63.65
2022-07-26T03:46:31.493Z,63.49
2022-07-26T03:47:31.412Z,64.61
2022-07-26T03:48:31.473Z,63.49
2022-07-26T03:49:31.411Z,63.97
2022-07-26T03:50:31.382Z,64.61
2022-07-26T03:51:31.373Z,65.90
2022-07-26T03:52:31.376Z,63.00
2022-07-26T03:53:31.365Z,62.36
2022-07-26T03:54:31.353Z,63.16
2022-07-26T03:55:31.371Z,63.00
2022-07-26T03:56:31.374Z,63.33
2022-07-26T03:57:31.334Z,64.29
2022-07-26T03:58:31.328Z,62.84
2022-07-26T03:59:31.318Z,62.20
2022-07-26T04:00:31.304Z,64.13
2022-07-26T04:01:31.366Z,63.65
2022-07-26T04:02:31.403Z,63.65
2022-07-26T04:03:31.293Z,63.65
2022-07-26T04:04:31.290Z,63.49
2022-07-26T04:05:31.272Z,63.97
2022-07-26T04:06:31.269Z,64.29
2022-07-26T04:07:31.264Z,64.13
2022-07-26T04:08:31.283Z,65.26
2022-07-26T04:09:31.256Z,65.90
2022-07-26T04:10:31.245Z,64.78
2022-07-26T04:11:31.223Z,63.33
2022-07-26T04:12:31.228Z,64.29
2022-07-26T04:13:31.219Z,64.94
2022-07-26T04:14:31.234Z,64.45
2022-07-26T04:15:31.207Z,64.45
2022-07-26T04:16:31.231Z,65.90
2022-07-26T04:17:31.183Z,63.97
2022-07-26T04:18:31.182Z,64.45
2022-07-26T04:19:31.191Z,63.81
2022-07-26T04:20:31.170Z,64.29
2022-07-26T04:21:31.162Z,67.03
2022-07-26T04:22:31.152Z,64.45
2022-07-26T04:23:31.153Z,65.42
2022-07-26T04:24:31.168Z,66.06
2022-07-26T04:25:38.447Z,65.26
2022-07-26T04:26:32.137Z,64.29
2022-07-26T04:27:31.115Z,64.45
2022-07-26T04:28:31.117Z,64.78
2022-07-26T04:29:31.103Z,64.78
2022-07-26T04:30:31.133Z,64.94
2022-07-26T04:31:36.223Z,65.10
2022-07-26T04:32:32.086Z,64.13
2022-07-26T04:33:31.081Z,66.71
2022-07-26T04:34:31.074Z,66.71
2022-07-26T04:35:31.057Z,65.42
2022-07-26T04:36:31.084Z,65.90
2022-07-26T04:37:31.047Z,64.78
2022-07-26T04:38:31.053Z,64.29
2022-07-26T04:39:31.024Z,66.39
2022-07-26T04:40:31.032Z,66.23
2022-07-26T04:41:31.030Z,66.39
2022-07-26T04:42:30.999Z,64.78
2022-07-26T04:43:31.012Z,64.61
2022-07-26T04:44:30.994Z,64.78
2022-07-26T04:45:30.983Z,64.29
2022-07-26T04:46:31.018Z,64.94
2022-07-26T04:47:30.972Z,64.13
2022-07-26T04:48:31.017Z,64.29
2022-07-26T04:49:30.945Z,64.94
2022-07-26T04:50:30.948Z,63.65
2022-07-26T04:51:30.984Z,63.65
2022-07-26T04:52:30.926Z,62.20
2022-07-26T04:53:30.942Z,62.04
2022-07-26T04:54:30.932Z,61.39
2022-07-26T04:55:30.913Z,60.42
2022-07-26T04:56:30.934Z,61.07
2022-07-26T04:57:30.891Z,60.75
2022-07-26T04:58:30.895Z,59.94
2022-07-26T04:59:32.642Z,60.59
2022-07-26T05:00:30.870Z,63.00
2022-07-26T05:01:30.989Z,61.23
2022-07-26T05:02:31.015Z,61.23
2022-07-26T05:03:30.848Z,61.39
2022-07-26T05:04:30.846Z,58.81
2022-07-26T05:05:30.826Z,60.26
2022-07-26T05:06:30.831Z,60.59
2022-07-26T05:07:30.881Z,61.87
2022-07-26T05:08:30.819Z,59.78
2022-07-26T05:09:30.814Z,59.94
2022-07-26T05:10:30.807Z,61.55
2022-07-26T05:11:30.795Z,61.23
2022-07-26T05:12:30.786Z,60.42
2022-07-26T05:13:31.097Z,59.14
2022-07-26T05:14:30.768Z,57.69
2022-07-26T05:15:35.542Z,58.17
2022-07-26T05:16:31.783Z,58.49
2022-07-26T05:17:30.765Z,60.59
2022-07-26T05:18:31.845Z,60.10
2022-07-26T05:19:31.758Z,59.14
2022-07-26T05:20:30.729Z,60.26
2022-07-26T05:21:30.721Z,60.59
2022-07-26T05:22:30.738Z,59.14
2022-07-26T05:23:30.704Z,59.14
2022-07-26T05:24:30.733Z,58.33
2022-07-26T05:25:30.691Z,59.78
2022-07-26T05:26:30.702Z,66.39
2022-07-26T05:27:30.690Z,64.13
2022-07-26T05:28:30.698Z,60.42
2022-07-26T05:29:30.663Z,60.10
2022-07-26T05:30:30.753Z,60.59
2022-07-26T05:31:30.666Z,59.14
2022-07-26T05:32:30.675Z,59.78
2022-07-26T05:33:30.668Z,60.75
2022-07-26T05:34:30.649Z,59.46
2022-07-26T05:35:30.659Z,59.78
2022-07-26T05:36:30.647Z,58.97
2022-07-26T05:37:30.627Z,59.62
2022-07-26T05:38:30.633Z,57.85
2022-07-26T05:39:30.610Z,58.49
2022-07-26T05:40:30.601Z,56.88
2022-07-26T05:41:30.618Z,56.72
2022-07-26T05:42:30.598Z,56.72
2022-07-26T05:43:41.343Z,55.91
2022-07-26T05:44:31.573Z,57.04
2022-07-26T05:45:30.607Z,58.49
2022-07-26T05:46:30.631Z,56.88
2022-07-26T05:47:30.573Z,56.72
2022-07-26T05:48:30.583Z,55.75
2022-07-26T05:49:39.784Z,55.75
2022-07-26T05:50:31.537Z,56.07
2022-07-26T05:51:30.536Z,55.43
2022-07-26T05:52:30.531Z,55.91
2022-07-26T05:53:30.551Z,53.66
2022-07-26T05:54:30.516Z,54.95
2022-07-26T05:55:30.503Z,55.11
2022-07-26T05:56:30.515Z,54.30
2022-07-26T05:57:30.492Z,54.30
2022-07-26T05:58:30.501Z,55.43
2022-07-26T05:59:30.532Z,56.72
2022-07-26T06:00:30.474Z,57.36
2022-07-26T06:01:30.485Z,55.91
2022-07-26T06:02:30.475Z,55.43
2022-07-26T06:03:30.456Z,55.27
2022-07-26T06:04:30.518Z,55.91
2022-07-26T06:05:30.465Z,57.36
2022-07-26T06:06:30.443Z,55.59
2022-07-26T06:07:30.440Z,55.59
2022-07-26T06:08:30.426Z,56.88
2022-07-26T06:09:30.438Z,54.95
2022-07-26T06:10:30.450Z,55.27
2022-07-26T06:11:30.408Z,54.62
2022-07-26T06:12:30.407Z,55.11
2022-07-26T06:13:30.395Z,55.43
2022-07-26T06:14:30.393Z,56.24
2022-07-26T06:15:30.389Z,54.62
2022-07-26T06:16:30.415Z,55.75
2022-07-26T06:17:30.619Z,57.20
2022-07-26T06:18:30.368Z,55.75
2022-07-26T06:19:30.368Z,55.11
2022-07-26T06:20:30.372Z,55.75
2022-07-26T06:21:30.350Z,56.24
2022-07-26T06:22:30.376Z,55.27
2022-07-26T06:23:33.748Z,54.30
2022-07-26T06:24:30.342Z,56.24
2022-07-26T06:25:30.321Z,57.04
2022-07-26T06:26:30.324Z,54.46
2022-07-26T06:27:30.309Z,54.30
2022-07-26T06:28:30.331Z,56.56
2022-07-26T06:29:31.984Z,56.07
2022-07-26T06:30:30.300Z,56.72
2022-07-26T06:31:30.362Z,55.59
2022-07-26T06:32:30.286Z,54.14
2022-07-26T06:33:30.275Z,53.98
2022-07-26T06:34:30.298Z,55.59
2022-07-26T06:35:30.264Z,54.62
2022-07-26T06:36:31.250Z,54.46
2022-07-26T06:37:30.254Z,55.11
2022-07-26T06:38:30.250Z,55.91
2022-07-26T06:39:30.263Z,53.50
2022-07-26T06:40:30.257Z,54.46
2022-07-26T06:41:30.228Z,54.30
2022-07-26T06:42:30.223Z,54.95
2022-07-26T06:43:30.219Z,55.75
2022-07-26T06:44:30.232Z,55.75
2022-07-26T06:45:30.333Z,56.56
2022-07-26T06:46:30.253Z,55.91
2022-07-26T06:47:30.197Z,56.56
2022-07-26T06:48:30.240Z,55.43
2022-07-26T06:49:30.251Z,55.27
2022-07-26T06:50:30.174Z,56.88
2022-07-26T06:51:30.175Z,57.04
2022-07-26T06:52:30.191Z,55.59
2022-07-26T06:53:30.158Z,55.59
2022-07-26T06:54:30.153Z,55.43
2022-07-26T06:55:30.148Z,55.91
2022-07-26T06:56:30.175Z,53.66
2022-07-26T06:57:30.140Z,53.50
2022-07-26T06:58:30.134Z,53.33
2022-07-26T06:59:30.123Z,53.50
2022-07-26T07:00:30.133Z,56.72
2022-07-26T07:01:57.460Z,55.11
2022-07-26T07:02:31.145Z,55.43
2022-07-26T07:03:30.107Z,54.79
2022-07-26T07:04:30.217Z,54.14
2022-07-26T07:05:31.036Z,55.59
2022-07-26T07:06:30.090Z,55.75
2022-07-26T07:07:30.076Z,54.46
2022-07-26T07:08:30.082Z,54.79
2022-07-26T07:09:30.094Z,56.56
2022-07-26T07:10:30.071Z,55.91
2022-07-26T07:11:30.062Z,56.88
2022-07-26T07:12:30.064Z,57.04
2022-07-26T07:13:30.066Z,53.01
2022-07-26T07:14:30.041Z,55.59
2022-07-26T07:15:30.041Z,54.62
2022-07-26T07:16:30.102Z,54.79
2022-07-26T07:17:30.031Z,59.78
2022-07-26T07:18:30.015Z,56.72
2022-07-26T07:19:30.015Z,57.04
2022-07-26T07:20:30.008Z,55.91
2022-07-26T07:21:30.010Z,56.40
2022-07-26T07:22:30.026Z,56.24
2022-07-26T07:23:29.987Z,55.59
2022-07-26T07:24:29.990Z,54.14
2022-07-26T07:25:30.315Z,53.82
2022-07-26T07:26:29.979Z,55.75
2022-07-26T07:27:29.970Z,56.24
2022-07-26T07:28:29.980Z,55.75
2022-07-26T07:29:29.971Z,54.46
2022-07-26T07:30:29.959Z,54.95
2022-07-26T07:31:30.430Z,54.79
2022-07-26T07:32:31.086Z,53.66
2022-07-26T07:33:32.078Z,54.95
2022-07-26T07:34:30.945Z,52.85
2022-07-26T07:35:31.752Z,53.17
2022-07-26T07:36:29.926Z,54.79
2022-07-26T07:37:53.520Z,54.46
2022-07-26T07:38:30.933Z,55.27
2022-07-26T07:39:34.921Z,55.75
2022-07-26T07:40:30.900Z,54.62
2022-07-26T07:41:29.888Z,55.75
2022-07-26T07:42:29.918Z,54.30
2022-07-26T07:43:29.875Z,55.91
2022-07-26T07:44:29.873Z,54.30
2022-07-26T07:45:29.862Z,53.17
2022-07-26T07:46:29.899Z,52.85
2022-07-26T07:47:29.856Z,54.30
2022-07-26T07:48:29.912Z,55.27
2022-07-26T07:49:29.875Z,55.91
2022-07-26T07:50:29.845Z,54.62
2022-07-26T07:51:29.837Z,54.79
2022-07-26T07:52:29.836Z,54.30
2022-07-26T07:53:30.482Z,54.14
2022-07-26T07:54:29.823Z,55.75
2022-07-26T07:55:41.489Z,56.07
2022-07-26T07:56:30.816Z,55.11
2022-07-26T07:57:29.811Z,55.27
2022-07-26T07:58:29.791Z,56.40
2022-07-26T07:59:29.808Z,55.43
2022-07-26T08:00:29.816Z,54.30
2022-07-26T08:01:39.414Z,53.98
2022-07-26T08:02:30.779Z,53.98
2022-07-26T08:03:38.406Z,54.46
2022-07-26T08:04:30.805Z,53.98
2022-07-26T08:05:29.767Z,55.43
2022-07-26T08:06:29.783Z,56.07
2022-07-26T08:07:32.763Z,53.50
2022-07-26T08:08:29.749Z,53.66
2022-07-26T08:09:29.755Z,53.98
2022-07-26T08:10:29.733Z,53.50
2022-07-26T08:11:29.893Z,55.59
2022-07-26T08:12:29.933Z,53.66
2022-07-26T08:13:29.733Z,53.82
2022-07-26T08:14:29.714Z,54.30
2022-07-26T08:15:29.710Z,54.95
2022-07-26T08:16:29.771Z,54.14
2022-07-26T08:17:29.701Z,53.33
2022-07-26T08:18:29.716Z,55.27
2022-07-26T08:19:41.459Z,54.30
2022-07-26T08:20:30.692Z,54.30
2022-07-26T08:21:29.698Z,54.46
2022-07-26T08:22:29.674Z,53.98
2022-07-26T08:23:29.680Z,52.85
2022-07-26T08:24:29.683Z,52.85
2022-07-26T08:25:29.667Z,53.50
2022-07-26T08:26:29.654Z,53.66
2022-07-26T08:27:29.650Z,51.24
2022-07-26T08:29:30.665Z,52.69
2022-07-26T08:30:29.652Z,53.66
2022-07-26T08:31:29.685Z,51.88
2022-07-26T08:32:29.619Z,53.17
2022-07-26T08:33:29.607Z,52.21
2022-07-26T08:34:29.617Z,53.66
2022-07-26T08:35:29.639Z,52.53
2022-07-26T08:36:32.647Z,54.30
2022-07-26T08:37:29.605Z,54.62
2022-07-26T08:38:29.609Z,55.27
2022-07-26T08:39:29.597Z,55.43
2022-07-26T08:40:29.576Z,55.91
2022-07-26T08:41:29.603Z,54.14
2022-07-26T08:42:29.570Z,57.36
2022-07-26T08:43:29.560Z,54.46
2022-07-26T08:44:29.557Z,55.11
2022-07-26T08:45:29.584Z,55.75
2022-07-26T08:46:29.579Z,55.27
2022-07-26T08:47:37.778Z,54.30
2022-07-26T08:48:29.594Z,52.85
2022-07-26T08:49:29.561Z,54.30
2022-07-26T08:50:29.533Z,53.01
2022-07-26T08:51:29.527Z,54.46
2022-07-26T08:52:29.517Z,54.14
2022-07-26T08:53:29.528Z,55.59
2022-07-26T08:54:29.503Z,54.30
2022-07-26T08:55:39.683Z,56.56
2022-07-26T08:56:30.495Z,58.33
2022-07-26T08:57:29.487Z,54.79
2022-07-26T08:58:29.496Z,53.82
2022-07-26T08:59:29.497Z,54.46
2022-07-26T09:00:29.518Z,52.85
2022-07-26T09:01:29.551Z,54.79
2022-07-26T09:02:29.466Z,56.07
2022-07-26T09:03:29.490Z,54.62
2022-07-26T09:04:32.241Z,54.79
2022-07-26T09:05:29.438Z,56.56
2022-07-26T09:06:29.481Z,55.91
2022-07-26T09:07:29.436Z,55.11
2022-07-26T09:08:29.429Z,53.82
2022-07-26T09:09:29.441Z,53.82
2022-07-26T09:10:29.408Z,53.66
2022-07-26T09:11:29.423Z,56.40
2022-07-26T09:12:29.431Z,57.36
2022-07-26T09:13:29.440Z,55.91
2022-07-26T09:14:29.394Z,58.17
2022-07-26T09:15:29.383Z,55.11
2022-07-26T09:16:29.471Z,55.91
2022-07-26T09:17:29.386Z,54.79
2022-07-26T09:18:29.372Z,55.43
2022-07-26T09:19:29.382Z,55.59
2022-07-26T09:20:29.366Z,56.24
2022-07-26T09:21:29.360Z,56.88
2022-07-26T09:22:29.348Z,60.75
2022-07-26T09:23:29.333Z,56.88
2022-07-26T09:24:29.352Z,56.72
2022-07-26T09:25:29.325Z,57.69
2022-07-26T09:26:29.345Z,58.01
2022-07-26T09:27:29.326Z,59.14
2022-07-26T09:28:29.304Z,59.14
2022-07-26T09:29:29.314Z,58.33
2022-07-26T09:30:29.292Z,58.17
2022-07-26T09:31:29.345Z,58.81
2022-07-26T09:32:29.273Z,60.42
2022-07-26T09:33:29.272Z,58.65
2022-07-26T09:34:29.285Z,58.97
2022-07-26T09:35:51.251Z,59.14
2022-07-26T09:36:30.248Z,58.65
2022-07-26T09:37:29.259Z,57.36
2022-07-26T09:38:29.236Z,57.04
2022-07-26T09:39:34.171Z,58.65
2022-07-26T09:40:30.254Z,57.36
2022-07-26T09:41:29.227Z,58.65
2022-07-26T09:42:29.837Z,59.46
2022-07-26T09:43:29.428Z,58.33
2022-07-26T09:44:29.213Z,58.01
2022-07-26T09:45:29.186Z,58.97
2022-07-26T09:46:29.242Z,59.94
2022-07-26T09:47:29.177Z,58.97
2022-07-26T09:48:36.676Z,59.94
2022-07-26T09:49:40.174Z,59.94
2022-07-26T09:50:29.212Z,59.46
2022-07-26T09:51:29.144Z,59.78
2022-07-26T09:52:30.161Z,59.46
2022-07-26T09:53:29.128Z,58.01
2022-07-26T09:54:29.157Z,59.14
2022-07-26T09:55:36.456Z,59.62
2022-07-26T09:56:30.133Z,60.42
2022-07-26T09:57:29.116Z,60.10
2022-07-26T09:58:29.132Z,59.94
2022-07-26T09:59:29.106Z,58.01
2022-07-26T10:00:29.084Z,59.46
2022-07-26T10:01:29.130Z,58.81
2022-07-26T10:02:29.165Z,58.97
2022-07-26T10:03:29.068Z,59.62
2022-07-26T10:04:29.090Z,60.91
2022-07-26T10:05:29.050Z,58.65
2022-07-26T10:06:30.608Z,58.97
2022-07-26T10:07:29.057Z,58.01
2022-07-26T10:08:29.042Z,59.78
2022-07-26T10:09:29.044Z,58.81
2022-07-26T10:10:29.041Z,59.62
2022-07-26T10:11:29.029Z,59.94
2022-07-26T10:12:30.672Z,59.94
2022-07-26T10:13:29.012Z,58.65
2022-07-26T10:14:28.999Z,58.49
2022-07-26T10:15:28.993Z,58.65
2022-07-26T10:16:29.051Z,59.62
2022-07-26T10:17:31.694Z,59.14
2022-07-26T10:18:29.984Z,59.14
2022-07-26T10:19:28.979Z,58.65
2022-07-26T10:20:28.990Z,59.30
2022-07-26T10:21:28.945Z,58.33
2022-07-26T10:22:28.940Z,58.97
2022-07-26T10:23:28.933Z,60.10
2022-07-26T10:24:28.927Z,60.91
2022-07-26T10:25:28.918Z,58.17
2022-07-26T10:26:28.931Z,58.33
2022-07-26T10:27:28.902Z,58.97
2022-07-26T10:28:28.893Z,58.97
2022-07-26T10:29:28.908Z,58.33
2022-07-26T10:30:34.412Z,58.01
2022-07-26T10:31:29.962Z,58.65
2022-07-26T10:32:28.887Z,60.10
2022-07-26T10:33:28.878Z,57.52
2022-07-26T10:34:28.851Z,59.94
2022-07-26T10:35:28.847Z,57.36
2022-07-26T10:36:28.860Z,58.01
2022-07-26T10:37:28.870Z,58.81
2022-07-26T10:38:28.830Z,60.10
2022-07-26T10:39:28.828Z,59.94
2022-07-26T10:40:28.818Z,58.49
2022-07-26T10:41:28.809Z,59.30
2022-07-26T10:42:28.849Z,59.46
2022-07-26T10:43:44.248Z,58.33
2022-07-26T10:44:29.803Z,58.65
2022-07-26T10:45:28.780Z,61.23
2022-07-26T10:46:28.822Z,57.20
2022-07-26T10:47:33.398Z,58.33
2022-07-26T10:48:29.806Z,58.33
2022-07-26T10:49:28.777Z,58.49
2022-07-26T10:50:28.751Z,66.23
2022-07-26T10:51:28.770Z,57.69
2022-07-26T10:52:28.738Z,57.69
2022-07-26T10:53:28.727Z,58.97
2022-07-26T10:54:28.725Z,60.26
2022-07-26T10:55:28.705Z,58.33
2022-07-26T10:56:32.862Z,57.85
2022-07-26T10:57:28.723Z,58.17
2022-07-26T10:58:28.693Z,59.14
2022-07-26T10:59:54.434Z,58.81
2022-07-26T11:00:29.694Z,58.65
2022-07-26T11:01:28.735Z,62.52
2022-07-26T11:02:28.734Z,58.97
2022-07-26T11:03:28.687Z,58.33
2022-07-26T11:04:28.656Z,57.52
2022-07-26T11:05:28.642Z,58.49
2022-07-26T11:06:28.628Z,62.20
2022-07-26T11:07:28.628Z,63.81
2022-07-26T11:08:28.613Z,63.16
2022-07-26T11:09:28.633Z,59.62
2022-07-26T11:10:28.623Z,58.49
2022-07-26T11:11:28.599Z,61.07
2022-07-26T11:12:28.591Z,61.23
2022-07-26T11:13:28.583Z,58.97
2022-07-26T11:14:28.571Z,59.14
2022-07-26T11:15:28.753Z,59.62
2022-07-26T11:16:28.639Z,59.46
2022-07-26T11:17:28.577Z,60.10
2022-07-26T11:18:28.551Z,59.46
2022-07-26T11:19:28.550Z,58.01
2022-07-26T11:20:30.053Z,60.75
2022-07-26T11:21:28.526Z,59.14
2022-07-26T11:22:28.551Z,58.33
2022-07-26T11:23:28.528Z,59.14
2022-07-26T11:24:28.516Z,60.42
2022-07-26T11:25:28.496Z,59.78
2022-07-26T11:26:28.489Z,60.42
2022-07-26T11:27:28.493Z,59.46
2022-07-26T11:28:28.508Z,59.78
2022-07-26T11:29:38.923Z,63.16
2022-07-26T11:30:29.471Z,60.59
2022-07-26T11:31:50.347Z,60.75
2022-07-26T11:32:29.558Z,59.94
2022-07-26T11:33:28.450Z,60.10
2022-07-26T11:34:28.465Z,59.62
2022-07-26T11:35:29.930Z,58.97
2022-07-26T11:36:28.425Z,58.81
2022-07-26T11:37:28.435Z,61.87
2022-07-26T11:38:28.415Z,59.14
2022-07-26T11:39:28.428Z,60.10
2022-07-26T11:40:28.394Z,60.91
2022-07-26T11:41:34.563Z,60.10
2022-07-26T11:42:29.418Z,65.90
2022-07-26T11:43:28.380Z,59.62
2022-07-26T11:44:28.383Z,59.30
2022-07-26T11:45:28.373Z,60.75
2022-07-26T11:46:28.390Z,58.97
2022-07-26T11:47:28.373Z,59.94
2022-07-26T11:48:28.380Z,59.62
2022-07-26T11:49:59.971Z,60.91
2022-07-26T11:50:28.334Z,68.64
2022-07-26T11:51:28.332Z,61.23
2022-07-26T11:52:28.323Z,59.94
2022-07-26T11:53:28.340Z,60.10
2022-07-26T11:54:28.298Z,58.49
2022-07-26T11:55:28.297Z,58.17
2022-07-26T11:56:28.295Z,59.62
2022-07-26T11:57:28.286Z,58.65
2022-07-26T11:58:28.281Z,59.30
2022-07-26T11:59:28.310Z,58.33
2022-07-26T12:00:28.266Z,59.94
2022-07-26T12:01:28.258Z,58.81
2022-07-26T12:02:28.258Z,58.81
2022-07-26T12:03:28.241Z,57.85
2022-07-26T12:04:28.342Z,57.52
2022-07-26T12:05:28.380Z,58.33
2022-07-26T12:06:28.222Z,57.69
2022-07-26T12:07:28.224Z,58.65
2022-07-26T12:08:28.230Z,59.30
2022-07-26T12:09:28.205Z,63.81
2022-07-26T12:10:28.203Z,62.68
2022-07-26T12:11:28.199Z,58.65
2022-07-26T12:12:28.203Z,60.10
2022-07-26T12:13:28.178Z,59.62
2022-07-26T12:14:29.198Z,58.17
2022-07-26T12:15:28.244Z,60.26
2022-07-26T12:16:28.236Z,58.97
2022-07-26T12:17:35.221Z,61.07
2022-07-26T12:18:28.165Z,60.10
2022-07-26T12:19:28.147Z,60.59
2022-07-26T12:20:28.165Z,60.91
2022-07-26T12:21:28.159Z,59.62
2022-07-26T12:22:28.125Z,58.49
2022-07-26T12:23:28.102Z,59.46
2022-07-26T12:24:28.108Z,59.30
2022-07-26T12:25:28.100Z,58.01
2022-07-26T12:26:28.112Z,58.33
2022-07-26T12:27:28.080Z,58.97
2022-07-26T12:28:28.084Z,59.30
2022-07-26T12:29:28.074Z,57.69
2022-07-26T12:30:30.677Z,58.01
2022-07-26T12:31:28.205Z,57.20
2022-07-26T12:32:28.077Z,57.85
2022-07-26T12:33:28.057Z,58.01
2022-07-26T12:34:28.036Z,58.33
2022-07-26T12:35:28.052Z,59.62
2022-07-26T12:36:30.060Z,59.62
2022-07-26T12:37:37.673Z,63.97
2022-07-26T12:38:29.018Z,60.10
2022-07-26T12:39:28.022Z,59.94
2022-07-26T12:40:28.001Z,66.87
2022-07-26T12:41:28.037Z,60.26
2022-07-26T12:42:33.307Z,59.46
2022-07-26T12:43:27.984Z,59.62
2022-07-26T12:44:27.977Z,58.81
2022-07-26T12:45:27.969Z,59.62
2022-07-26T12:46:28.037Z,61.07
2022-07-26T12:47:27.983Z,60.59
2022-07-26T12:48:27.983Z,59.94
2022-07-26T12:49:27.975Z,60.26
2022-07-26T12:50:27.933Z,59.94
2022-07-26T12:51:27.934Z,60.10
2022-07-26T12:52:27.922Z,61.07
2022-07-26T12:53:27.944Z,59.94